sensor_id;sensor_type;location;lat;lon;timestamp;pressure;altitude;pressure_sealevel;temperature;humidity
63808;BME280;49961;43.970;22.868;2023-01-31T00:00:13;101151.91;;;4.54;100.00
63808;BME280;49961;43.970;22.868;2023-01-31T00:01:20;101152.28;;;4.56;100.00
63808;BME280;49961;43.970;22.868;2023-01-31T00:02:21;101146.81;;;4.56;100.00
63808;BME280;49961;43.970;22.868;2023-01-31T00:03:21;101085.34;;;4.21;100.00
63808;BME280;49961;43.970;22.868;2023-01-31T00:04:22;101121.63;;;4.47;100.00
63808;BME280;49961;43.970;22.868;2023-01-31T00:05:22;101160.28;;;4.68;100.00
63808;BME280;49961;43.970;22.868;2023-01-31T00:06:37;101148.44;;;4.61;100.00
63808;BME280;49961;43.970;22.868;2023-01-31T00:07:38;101082.16;;;4.15;100.00
63808;BME280;49961;43.970;22.868;2023-01-31T00:08:39;101161.44;;;4.71;100.00
63808;BME280;49961;43.970;22.868;2023-01-31T00:09:39;101154.38;;;4.70;100.00
63808;BME280;49961;43.970;22.868;2023-01-31T00:10:40;101152.06;;;4.72;100.00
63808;BME280;49961;43.970;22.868;2023-01-31T00:11:41;101143.38;;;4.70;100.00
63808;BME280;49961;43.970;22.868;2023-01-31T00:12:41;101148.13;;;4.69;100.00
63808;BME280;49961;43.970;22.868;2023-01-31T00:13:43;101144.19;;;4.70;100.00
63808;BME280;49961;43.970;22.868;2023-01-31T00:14:43;101141.78;;;4.65;100.00
63808;BME280;49961;43.970;22.868;2023-01-31T00:15:44;101144.19;;;4.70;100.00
63808;BME280;49961;43.970;22.868;2023-01-31T00:16:44;101148.56;;;4.78;100.00
63808;BME280;49961;43.970;22.868;2023-01-31T00:17:45;101143.88;;;4.82;100.00
63808;BME280;49961;43.970;22.868;2023-01-31T00:18:45;101080.41;;;4.37;100.00
63808;BME280;49961;43.970;22.868;2023-01-31T00:19:46;101141.91;;;4.79;100.00
63808;BME280;49961;43.970;22.868;2023-01-31T00:20:47;101150.19;;;4.83;100.00
63808;BME280;49961;43.970;22.868;2023-01-31T00:21:47;101143.16;;;4.89;100.00
63808;BME280;49961;43.970;22.868;2023-01-31T00:22:47;101139.66;;;4.92;100.00
63808;BME280;49961;43.970;22.868;2023-01-31T00:23:49;101136.91;;;4.92;100.00
63808;BME280;49961;43.970;22.868;2023-01-31T00:24:50;101121.16;;;4.85;100.00
63808;BME280;49961;43.970;22.868;2023-01-31T00:25:50;101083.22;;;4.47;100.00
63808;BME280;49961;43.970;22.868;2023-01-31T00:26:51;100953.59;;;3.63;100.00
63808;BME280;49961;43.970;22.868;2023-01-31T00:27:57;101147.47;;;4.90;100.00
63808;BME280;49961;43.970;22.868;2023-01-31T00:28:59;101122.66;;;4.76;100.00
63808;BME280;49961;43.970;22.868;2023-01-31T00:30:00;101149.50;;;4.96;100.00
63808;BME280;49961;43.970;22.868;2023-01-31T00:31:00;101146.75;;;4.96;100.00
63808;BME280;49961;43.970;22.868;2023-01-31T00:32:00;101135.75;;;4.96;100.00
63808;BME280;49961;43.970;22.868;2023-01-31T00:33:01;101144.00;;;4.96;100.00
63808;BME280;49961;43.970;22.868;2023-01-31T00:34:02;101137.34;;;5.01;100.00
63808;BME280;49961;43.970;22.868;2023-01-31T00:35:03;101128.34;;;5.00;100.00
63808;BME280;49961;43.970;22.868;2023-01-31T00:36:11;101142.81;;;4.94;100.00
63808;BME280;49961;43.970;22.868;2023-01-31T00:37:12;101143.59;;;4.94;100.00
63808;BME280;49961;43.970;22.868;2023-01-31T00:38:12;101140.06;;;4.94;100.00
63808;BME280;49961;43.970;22.868;2023-01-31T00:39:13;101138.84;;;4.91;100.00
63808;BME280;49961;43.970;22.868;2023-01-31T00:40:13;101137.31;;;4.97;100.00
63808;BME280;49961;43.970;22.868;2023-01-31T00:41:14;101133.44;;;5.02;100.00
63808;BME280;49961;43.970;22.868;2023-01-31T00:42:14;101124.75;;;4.93;100.00
63808;BME280;49961;43.970;22.868;2023-01-31T00:43:14;101144.47;;;5.09;100.00
63808;BME280;49961;43.970;22.868;2023-01-31T00:44:15;101144.13;;;5.14;100.00
63808;BME280;49961;43.970;22.868;2023-01-31T00:45:15;101150.00;;;5.16;100.00
63808;BME280;49961;43.970;22.868;2023-01-31T00:46:16;101153.19;;;5.21;100.00
63808;BME280;49961;43.970;22.868;2023-01-31T00:47:19;101146.53;;;5.22;100.00
63808;BME280;49961;43.970;22.868;2023-01-31T00:48:19;101121.28;;;4.99;100.00
63808;BME280;49961;43.970;22.868;2023-01-31T00:49:20;101144.94;;;5.21;100.00
63808;BME280;49961;43.970;22.868;2023-01-31T00:50:20;101153.22;;;5.25;100.00
63808;BME280;49961;43.970;22.868;2023-01-31T00:51:22;101132.75;;;5.15;100.00
63808;BME280;49961;43.970;22.868;2023-01-31T00:52:23;101146.13;;;5.24;100.00
63808;BME280;49961;43.970;22.868;2023-01-31T00:53:23;101138.72;;;5.28;100.00
63808;BME280;49961;43.970;22.868;2023-01-31T00:54:24;101029.28;;;4.72;100.00
63808;BME280;49961;43.970;22.868;2023-01-31T00:55:25;101136.44;;;5.40;100.00
63808;BME280;49961;43.970;22.868;2023-01-31T00:56:25;101127.34;;;5.33;100.00
63808;BME280;49961;43.970;22.868;2023-01-31T00:57:26;101137.19;;;5.37;100.00
63808;BME280;49961;43.970;22.868;2023-01-31T00:58:26;101134.81;;;5.39;100.00
63808;BME280;49961;43.970;22.868;2023-01-31T00:59:27;101140.75;;;5.45;100.00
63808;BME280;49961;43.970;22.868;2023-01-31T01:00:27;101129.69;;;5.34;99.82
63808;BME280;49961;43.970;22.868;2023-01-31T01:01:28;101143.13;;;5.50;99.81
63808;BME280;49961;43.970;22.868;2023-01-31T01:02:28;101152.13;;;5.43;99.47
63808;BME280;49961;43.970;22.868;2023-01-31T01:03:29;101083.56;;;4.93;99.85
63808;BME280;49961;43.970;22.868;2023-01-31T01:04:29;101161.09;;;5.33;100.00
63808;BME280;49961;43.970;22.868;2023-01-31T01:05:30;101160.69;;;5.28;100.00
63808;BME280;49961;43.970;22.868;2023-01-31T01:06:30;101157.06;;;5.17;100.00
63808;BME280;49961;43.970;22.868;2023-01-31T01:07:31;101151.03;;;4.94;100.00
63808;BME280;49961;43.970;22.868;2023-01-31T01:08:32;101162.41;;;4.92;100.00
63808;BME280;49961;43.970;22.868;2023-01-31T01:09:32;101165.94;;;4.93;100.00
63808;BME280;49961;43.970;22.868;2023-01-31T01:10:33;101150.16;;;4.79;100.00
63808;BME280;49961;43.970;22.868;2023-01-31T01:11:34;101167.41;;;4.83;100.00
63808;BME280;49961;43.970;22.868;2023-01-31T01:12:35;101171.31;;;4.79;100.00
63808;BME280;49961;43.970;22.868;2023-01-31T01:13:36;101164.16;;;4.67;100.00
63808;BME280;49961;43.970;22.868;2023-01-31T01:14:37;101153.81;;;4.50;100.00
63808;BME280;49961;43.970;22.868;2023-01-31T01:15:37;101142.88;;;4.54;100.00
63808;BME280;49961;43.970;22.868;2023-01-31T01:16:38;101165.44;;;4.77;100.00
63808;BME280;49961;43.970;22.868;2023-01-31T01:17:39;101144.94;;;4.67;100.00
63808;BME280;49961;43.970;22.868;2023-01-31T01:18:39;101136.78;;;4.74;100.00
63808;BME280;49961;43.970;22.868;2023-01-31T01:19:40;101147.84;;;4.88;100.00
63808;BME280;49961;43.970;22.868;2023-01-31T01:20:41;101069.75;;;4.28;100.00
63808;BME280;49961;43.970;22.868;2023-01-31T01:21:41;101144.25;;;4.81;100.00
63808;BME280;49961;43.970;22.868;2023-01-31T01:22:43;101146.22;;;4.77;100.00
63808;BME280;49961;43.970;22.868;2023-01-31T01:23:44;101154.47;;;4.80;100.00
63808;BME280;49961;43.970;22.868;2023-01-31T01:24:46;101154.47;;;4.80;100.00
63808;BME280;49961;43.970;22.868;2023-01-31T01:25:47;101145.81;;;4.78;100.00
63808;BME280;49961;43.970;22.868;2023-01-31T01:26:47;101151.63;;;4.70;100.00
63808;BME280;49961;43.970;22.868;2023-01-31T01:27:48;101157.13;;;4.70;100.00
63808;BME280;49961;43.970;22.868;2023-01-31T01:28:49;101155.53;;;4.69;100.00
63808;BME280;49961;43.970;22.868;2023-01-31T01:29:49;101133.09;;;4.60;100.00
63808;BME280;49961;43.970;22.868;2023-01-31T01:30:50;101153.16;;;4.64;100.00
63808;BME280;49961;43.970;22.868;2023-01-31T01:31:50;101148.44;;;4.61;100.00
63808;BME280;49961;43.970;22.868;2023-01-31T01:32:53;101148.38;;;4.57;100.00
63808;BME280;49961;43.970;22.868;2023-01-31T01:33:56;101149.19;;;4.58;100.00
63808;BME280;49961;43.970;22.868;2023-01-31T01:34:57;101156.22;;;4.55;100.00
63808;BME280;49961;43.970;22.868;2023-01-31T01:36:05;101095.38;;;4.06;100.00
63808;BME280;49961;43.970;22.868;2023-01-31T01:37:08;101148.34;;;4.54;100.00
63808;BME280;49961;43.970;22.868;2023-01-31T01:38:10;101142.13;;;4.57;100.00
63808;BME280;49961;43.970;22.868;2023-01-31T01:39:11;101114.00;;;4.27;100.00
63808;BME280;49961;43.970;22.868;2023-01-31T01:40:12;101047.50;;;3.97;100.00
63808;BME280;49961;43.970;22.868;2023-01-31T01:41:13;101145.22;;;4.52;100.00
63808;BME280;49961;43.970;22.868;2023-01-31T01:42:16;101138.16;;;4.51;100.00
63808;BME280;49961;43.970;22.868;2023-01-31T01:43:16;101121.28;;;4.52;100.00
63808;BME280;49961;43.970;22.868;2023-01-31T01:44:55;101128.41;;;4.60;100.00
63808;BME280;49961;43.970;22.868;2023-01-31T01:45:57;101132.69;;;4.54;100.00
63808;BME280;49961;43.970;22.868;2023-01-31T01:46:58;101137.38;;;4.54;100.00
63808;BME280;49961;43.970;22.868;2023-01-31T01:48:03;101123.06;;;4.31;100.00
63808;BME280;49961;43.970;22.868;2023-01-31T01:50:40;101135.25;;;4.33;100.00
63808;BME280;49961;43.970;22.868;2023-01-31T01:51:43;101157.72;;;4.46;100.00
63808;BME280;49961;43.970;22.868;2023-01-31T01:52:49;101155.00;;;4.49;100.00
63808;BME280;49961;43.970;22.868;2023-01-31T01:53:53;101073.63;;;3.84;100.00
63808;BME280;49961;43.970;22.868;2023-01-31T01:55:09;101160.38;;;4.39;100.00
63808;BME280;49961;43.970;22.868;2023-01-31T01:56:17;101164.16;;;4.27;100.00
63808;BME280;49961;43.970;22.868;2023-01-31T01:57:24;101057.59;;;3.53;100.00
63808;BME280;49961;43.970;22.868;2023-01-31T01:58:46;101165.66;;;4.18;100.00
63808;BME280;49961;43.970;22.868;2023-01-31T02:00:14;101167.19;;;4.15;100.00
63808;BME280;49961;43.970;22.868;2023-01-31T02:01:13;101179.78;;;4.20;100.00
63808;BME280;49961;43.970;22.868;2023-01-31T02:02:16;101120.13;;;3.77;100.00
63808;BME280;49961;43.970;22.868;2023-01-31T02:03:17;101186.09;;;4.24;100.00
63808;BME280;49961;43.970;22.868;2023-01-31T02:04:21;101180.50;;;4.13;100.00
63808;BME280;49961;43.970;22.868;2023-01-31T02:05:28;101185.69;;;4.22;100.00
63808;BME280;49961;43.970;22.868;2023-01-31T02:06:29;101186.09;;;4.24;100.00
63808;BME280;49961;43.970;22.868;2023-01-31T02:07:30;101187.38;;;4.33;100.00
63808;BME280;49961;43.970;22.868;2023-01-31T02:08:33;101183.88;;;4.36;100.00
63808;BME280;49961;43.970;22.868;2023-01-31T02:09:54;101184.69;;;4.40;100.00
63808;BME280;49961;43.970;22.868;2023-01-31T02:11:16;101185.06;;;4.39;100.00
63808;BME280;49961;43.970;22.868;2023-01-31T02:12:20;101186.25;;;4.41;100.00
63808;BME280;49961;43.970;22.868;2023-01-31T02:13:20;101098.34;;;3.87;100.00
63808;BME280;49961;43.970;22.868;2023-01-31T02:14:21;101169.75;;;4.34;100.00
63808;BME280;49961;43.970;22.868;2023-01-31T02:15:22;101126.22;;;3.96;100.00
63808;BME280;49961;43.970;22.868;2023-01-31T02:16:23;101189.03;;;4.45;100.00
63808;BME280;49961;43.970;22.868;2023-01-31T02:17:24;101183.56;;;4.45;100.00
63808;BME280;49961;43.970;22.868;2023-01-31T02:18:25;101185.50;;;4.41;100.00
63808;BME280;49961;43.970;22.868;2023-01-31T02:23:01;101182.44;;;4.49;100.00
63808;BME280;49961;43.970;22.868;2023-01-31T02:29:52;101175.25;;;4.38;100.00
63808;BME280;49961;43.970;22.868;2023-01-31T02:33:51;101181.09;;;4.33;100.00
63808;BME280;49961;43.970;22.868;2023-01-31T02:35:17;101177.16;;;4.34;100.00
63808;BME280;49961;43.970;22.868;2023-01-31T02:38:04;101185.78;;;4.32;100.00
63808;BME280;49961;43.970;22.868;2023-01-31T02:39:28;101187.03;;;4.38;100.00
63808;BME280;49961;43.970;22.868;2023-01-31T02:41:51;101203.03;;;4.33;100.00
63808;BME280;49961;43.970;22.868;2023-01-31T02:43:17;101201.13;;;4.37;100.00
63808;BME280;49961;43.970;22.868;2023-01-31T02:46:11;101202.31;;;4.36;100.00
63808;BME280;49961;43.970;22.868;2023-01-31T02:48:56;101205.44;;;4.38;100.00
63808;BME280;49961;43.970;22.868;2023-01-31T02:50:16;101214.81;;;4.33;100.00
63808;BME280;49961;43.970;22.868;2023-01-31T02:51:23;101125.56;;;3.70;100.00
63808;BME280;49961;43.970;22.868;2023-01-31T02:52:34;101122.25;;;3.57;100.00
63808;BME280;49961;43.970;22.868;2023-01-31T02:53:43;101157.97;;;3.64;100.00
63808;BME280;49961;43.970;22.868;2023-01-31T02:54:59;101231.06;;;4.16;100.00
63808;BME280;49961;43.970;22.868;2023-01-31T02:56:28;101137.13;;;3.56;100.00
63808;BME280;49961;43.970;22.868;2023-01-31T02:57:30;101227.13;;;4.13;100.00
63808;BME280;49961;43.970;22.868;2023-01-31T02:58:35;101162.72;;;3.67;100.00
63808;BME280;49961;43.970;22.868;2023-01-31T02:59:36;101217.25;;;4.09;100.00
63808;BME280;49961;43.970;22.868;2023-01-31T03:00:40;101120.03;;;3.37;100.00
63808;BME280;49961;43.970;22.868;2023-01-31T03:01:44;101217.69;;;4.11;100.00
63808;BME280;49961;43.970;22.868;2023-01-31T03:02:45;101204.72;;;4.08;100.00
63808;BME280;49961;43.970;22.868;2023-01-31T03:03:46;101208.22;;;4.05;100.00
63808;BME280;49961;43.970;22.868;2023-01-31T03:04:47;101215.69;;;4.08;100.00
63808;BME280;49961;43.970;22.868;2023-01-31T03:07:24;101209.91;;;4.16;100.00
63808;BME280;49961;43.970;22.868;2023-01-31T03:08:28;101207.16;;;4.16;100.00
63808;BME280;49961;43.970;22.868;2023-01-31T03:09:49;101203.22;;;4.14;100.00
63808;BME280;49961;43.970;22.868;2023-01-31T03:11:00;101125.41;;;3.59;100.00
63808;BME280;49961;43.970;22.868;2023-01-31T03:12:05;101197.19;;;4.01;100.00
63808;BME280;49961;43.970;22.868;2023-01-31T03:13:42;101188.56;;;3.99;100.00
63808;BME280;49961;43.970;22.868;2023-01-31T03:18:01;101194.34;;;3.91;100.00
63808;BME280;49961;43.970;22.868;2023-01-31T03:19:18;101200.59;;;3.91;100.00
63808;BME280;49961;43.970;22.868;2023-01-31T03:20:43;101181.38;;;3.88;100.00
63808;BME280;49961;43.970;22.868;2023-01-31T03:21:58;101091.28;;;3.20;100.00
63808;BME280;49961;43.970;22.868;2023-01-31T03:23:04;101197.38;;;3.82;100.00
63808;BME280;49961;43.970;22.868;2023-01-31T03:24:07;101196.19;;;3.83;100.00
63808;BME280;49961;43.970;22.868;2023-01-31T03:25:09;101197.78;;;3.84;100.00
63808;BME280;49961;43.970;22.868;2023-01-31T03:26:11;101187.84;;;3.73;100.00
63808;BME280;49961;43.970;22.868;2023-01-31T03:27:12;101198.94;;;3.83;100.00
63808;BME280;49961;43.970;22.868;2023-01-31T03:28:17;101203.66;;;3.86;100.00
63808;BME280;49961;43.970;22.868;2023-01-31T03:29:20;101122.97;;;3.21;100.00
63808;BME280;49961;43.970;22.868;2023-01-31T03:30:26;101210.72;;;3.84;100.00
63808;BME280;49961;43.970;22.868;2023-01-31T03:31:37;101211.06;;;3.82;100.00
63808;BME280;49961;43.970;22.868;2023-01-31T03:32:44;101212.25;;;3.81;100.00
63808;BME280;49961;43.970;22.868;2023-01-31T03:33:51;101183.50;;;3.72;100.00
63808;BME280;49961;43.970;22.868;2023-01-31T03:34:53;101155.66;;;3.37;100.00
63808;BME280;49961;43.970;22.868;2023-01-31T03:36:01;101166.72;;;3.44;100.00
63808;BME280;49961;43.970;22.868;2023-01-31T03:37:32;101215.72;;;3.78;100.00
63808;BME280;49961;43.970;22.868;2023-01-31T03:38:47;101145.72;;;3.25;100.00
63808;BME280;49961;43.970;22.868;2023-01-31T03:40:01;101221.16;;;3.75;100.00
63808;BME280;49961;43.970;22.868;2023-01-31T03:41:42;101224.59;;;3.68;100.00
63808;BME280;49961;43.970;22.868;2023-01-31T03:42:43;101226.13;;;3.66;100.00
63808;BME280;49961;43.970;22.868;2023-01-31T03:44:14;101216.69;;;3.63;100.00
63808;BME280;49961;43.970;22.868;2023-01-31T03:45:25;101198.06;;;3.46;100.00
63808;BME280;49961;43.970;22.868;2023-01-31T03:46:31;101231.13;;;3.60;100.00
63808;BME280;49961;43.970;22.868;2023-01-31T03:47:37;101202.34;;;3.44;100.00
63808;BME280;49961;43.970;22.868;2023-01-31T03:48:41;101215.16;;;3.66;100.00
63808;BME280;49961;43.970;22.868;2023-01-31T03:49:44;101227.75;;;3.70;100.00
63808;BME280;49961;43.970;22.868;2023-01-31T03:50:50;101237.88;;;3.66;100.00
63808;BME280;49961;43.970;22.868;2023-01-31T03:51:57;101235.19;;;3.70;100.00
63808;BME280;49961;43.970;22.868;2023-01-31T03:53:33;101248.13;;;3.73;100.00
63808;BME280;49961;43.970;22.868;2023-01-31T03:54:40;101240.19;;;3.64;100.00
63808;BME280;49961;43.970;22.868;2023-01-31T03:55:56;101246.16;;;3.70;100.00
63808;BME280;49961;43.970;22.868;2023-01-31T03:57:04;101256.59;;;3.61;100.00
63808;BME280;49961;43.970;22.868;2023-01-31T03:58:07;101207.69;;;3.37;100.00
63808;BME280;49961;43.970;22.868;2023-01-31T03:59:17;101251.69;;;3.73;100.00
63808;BME280;49961;43.970;22.868;2023-01-31T04:00:21;101224.38;;;3.54;100.00
63808;BME280;49961;43.970;22.868;2023-01-31T04:01:25;101253.69;;;3.76;100.00
63808;BME280;49961;43.970;22.868;2023-01-31T04:02:32;101266.56;;;3.72;100.00
63808;BME280;49961;43.970;22.868;2023-01-31T04:03:57;101252.47;;;3.74;100.00
63808;BME280;49961;43.970;22.868;2023-01-31T04:05:13;101267.31;;;3.73;100.00
63808;BME280;49961;43.970;22.868;2023-01-31T04:06:14;101242.28;;;3.74;100.00
63808;BME280;49961;43.970;22.868;2023-01-31T04:07:16;101266.69;;;3.83;100.00
63808;BME280;49961;43.970;22.868;2023-01-31T04:08:17;101253.44;;;3.88;100.00
63808;BME280;49961;43.970;22.868;2023-01-31T04:09:17;101255.44;;;3.91;100.00
63808;BME280;49961;43.970;22.868;2023-01-31T04:10:18;101241.44;;;3.70;100.00
63808;BME280;49961;43.970;22.868;2023-01-31T04:11:20;101263.72;;;3.95;100.00
63808;BME280;49961;43.970;22.868;2023-01-31T04:12:21;101255.91;;;3.97;100.00
63808;BME280;49961;43.970;22.868;2023-01-31T04:13:21;101260.25;;;4.01;100.00
63808;BME280;49961;43.970;22.868;2023-01-31T04:14:22;101264.66;;;4.06;100.00
63808;BME280;49961;43.970;22.868;2023-01-31T04:15:22;101244.94;;;3.97;100.00
63808;BME280;49961;43.970;22.868;2023-01-31T04:16:23;101259.69;;;4.15;100.00
63808;BME280;49961;43.970;22.868;2023-01-31T04:17:23;101252.22;;;4.15;100.00
63808;BME280;49961;43.970;22.868;2023-01-31T04:18:24;101263.56;;;4.14;100.00
63808;BME280;49961;43.970;22.868;2023-01-31T04:19:24;101237.38;;;3.87;100.00
63808;BME280;49961;43.970;22.868;2023-01-31T04:20:24;101265.41;;;4.06;100.00
63808;BME280;49961;43.970;22.868;2023-01-31T04:21:25;101252.16;;;4.08;100.00
63808;BME280;49961;43.970;22.868;2023-01-31T04:22:25;101157.75;;;3.47;100.00
63808;BME280;49961;43.970;22.868;2023-01-31T04:23:26;101177.44;;;3.56;100.00
63808;BME280;49961;43.970;22.868;2023-01-31T04:24:26;101266.75;;;4.16;100.00
63808;BME280;49961;43.970;22.868;2023-01-31T04:25:27;101261.94;;;4.09;100.00
63808;BME280;49961;43.970;22.868;2023-01-31T04:26:27;101260.75;;;4.07;100.00
63808;BME280;49961;43.970;22.868;2023-01-31T04:27:28;101261.16;;;4.09;100.00
63808;BME280;49961;43.970;22.868;2023-01-31T04:28:28;101242.81;;;3.83;100.00
63808;BME280;49961;43.970;22.868;2023-01-31T04:29:28;101269.78;;;4.07;100.00
63808;BME280;49961;43.970;22.868;2023-01-31T04:30:29;101264.69;;;4.09;100.00
63808;BME280;49961;43.970;22.868;2023-01-31T04:31:29;101268.16;;;4.06;100.00
63808;BME280;49961;43.970;22.868;2023-01-31T04:32:30;101270.13;;;4.06;100.00
63808;BME280;49961;43.970;22.868;2023-01-31T04:33:30;101273.41;;;4.15;100.00
63808;BME280;49961;43.970;22.868;2023-01-31T04:34:31;101276.91;;;4.15;100.00
63808;BME280;49961;43.970;22.868;2023-01-31T04:35:31;101279.25;;;4.13;100.00
63808;BME280;49961;43.970;22.868;2023-01-31T04:36:33;101292.91;;;4.10;100.00
63808;BME280;49961;43.970;22.868;2023-01-31T04:37:33;101281.16;;;4.09;100.00
63808;BME280;49961;43.970;22.868;2023-01-31T04:38:34;101285.91;;;4.12;100.00
63808;BME280;49961;43.970;22.868;2023-01-31T04:39:35;101287.47;;;4.13;100.00
63808;BME280;49961;43.970;22.868;2023-01-31T04:40:35;101283.53;;;4.11;100.00
63808;BME280;49961;43.970;22.868;2023-01-31T04:41:36;101290.97;;;4.14;100.00
63808;BME280;49961;43.970;22.868;2023-01-31T04:42:36;101081.13;;;2.95;100.00
63808;BME280;49961;43.970;22.868;2023-01-31T04:43:36;101293.72;;;4.43;100.00
63808;BME280;49961;43.970;22.868;2023-01-31T04:44:37;101175.34;;;3.75;100.00
63808;BME280;49961;43.970;22.868;2023-01-31T04:45:37;101159.94;;;3.64;100.00
63808;BME280;49961;43.970;22.868;2023-01-31T04:46:38;101241.28;;;4.19;100.00
63808;BME280;49961;43.970;22.868;2023-01-31T04:47:38;101289.03;;;4.47;100.00
63808;BME280;49961;43.970;22.868;2023-01-31T04:48:39;101288.38;;;4.57;100.00
63808;BME280;49961;43.970;22.868;2023-01-31T04:49:40;101287.63;;;4.60;100.00
63808;BME280;49961;43.970;22.868;2023-01-31T04:50:40;101254.91;;;4.45;100.00
63808;BME280;49961;43.970;22.868;2023-01-31T04:51:41;101291.28;;;4.71;100.00
63808;BME280;49961;43.970;22.868;2023-01-31T04:52:41;101286.63;;;4.75;100.00
63808;BME280;49961;43.970;22.868;2023-01-31T04:53:43;101286.66;;;4.79;100.00
63808;BME280;49961;43.970;22.868;2023-01-31T04:54:44;101286.34;;;4.87;100.00
63808;BME280;49961;43.970;22.868;2023-01-31T04:55:44;101291.09;;;4.94;100.00
63808;BME280;49961;43.970;22.868;2023-01-31T04:56:44;101287.63;;;4.97;100.00
63808;BME280;49961;43.970;22.868;2023-01-31T04:57:45;101284.94;;;5.04;100.00
63808;BME280;49961;43.970;22.868;2023-01-31T04:58:45;101268.78;;;4.99;100.00
63808;BME280;49961;43.970;22.868;2023-01-31T04:59:47;101298.34;;;5.12;100.00
63808;BME280;49961;43.970;22.868;2023-01-31T05:00:49;101280.28;;;5.11;100.00
63808;BME280;49961;43.970;22.868;2023-01-31T05:01:49;101279.50;;;5.14;100.00
63808;BME280;49961;43.970;22.868;2023-01-31T05:02:50;101279.47;;;5.11;100.00
63808;BME280;49961;43.970;22.868;2023-01-31T05:03:51;101178.75;;;4.35;100.00
63808;BME280;49961;43.970;22.868;2023-01-31T05:04:51;101280.66;;;5.10;100.00
63808;BME280;49961;43.970;22.868;2023-01-31T05:05:52;101287.03;;;5.21;100.00
63808;BME280;49961;43.970;22.868;2023-01-31T05:06:52;101243.56;;;4.86;100.00
63808;BME280;49961;43.970;22.868;2023-01-31T05:07:53;101270.16;;;5.19;100.00
63808;BME280;49961;43.970;22.868;2023-01-31T05:08:53;101289.41;;;5.22;100.00
63808;BME280;49961;43.970;22.868;2023-01-31T05:09:53;101279.56;;;5.18;100.00
63808;BME280;49961;43.970;22.868;2023-01-31T05:11:01;101285.81;;;5.18;100.00
63808;BME280;49961;43.970;22.868;2023-01-31T05:12:02;101292.97;;;5.26;100.00
63808;BME280;49961;43.970;22.868;2023-01-31T05:13:04;101289.09;;;5.34;100.00
63808;BME280;49961;43.970;22.868;2023-01-31T05:14:04;101300.16;;;5.38;100.00
63808;BME280;49961;43.970;22.868;2023-01-31T05:15:05;101290.34;;;5.40;100.00
63808;BME280;49961;43.970;22.868;2023-01-31T05:16:10;101296.69;;;5.48;100.00
63808;BME280;49961;43.970;22.868;2023-01-31T05:17:11;101294.38;;;5.57;100.00
63808;BME280;49961;43.970;22.868;2023-01-31T05:18:11;101198.13;;;4.96;100.00
63808;BME280;49961;43.970;22.868;2023-01-31T05:19:13;101272.69;;;5.45;100.00
63808;BME280;49961;43.970;22.868;2023-01-31T05:20:14;101289.34;;;5.69;100.00
63808;BME280;49961;43.970;22.868;2023-01-31T05:21:14;101283.84;;;5.69;100.00
63808;BME280;49961;43.970;22.868;2023-01-31T05:22:15;101300.81;;;5.78;100.00
63808;BME280;49961;43.970;22.868;2023-01-31T05:23:16;101242.47;;;5.45;100.00
63808;BME280;49961;43.970;22.868;2023-01-31T05:24:16;101299.72;;;5.86;100.00
63808;BME280;49961;43.970;22.868;2023-01-31T05:25:19;101300.94;;;5.92;100.00
63808;BME280;49961;43.970;22.868;2023-01-31T05:26:19;101279.28;;;5.84;100.00
63808;BME280;49961;43.970;22.868;2023-01-31T05:27:20;101297.03;;;6.00;100.00
63808;BME280;49961;43.970;22.868;2023-01-31T05:28:20;101300.22;;;6.02;100.00
63808;BME280;49961;43.970;22.868;2023-01-31T05:29:21;101295.09;;;6.04;100.00
63808;BME280;49961;43.970;22.868;2023-01-31T05:30:21;101290.41;;;6.05;100.00
63808;BME280;49961;43.970;22.868;2023-01-31T05:31:23;101288.41;;;6.02;100.00
63808;BME280;49961;43.970;22.868;2023-01-31T05:32:23;101288.78;;;6.00;100.00
63808;BME280;49961;43.970;22.868;2023-01-31T05:33:24;101284.06;;;5.97;100.00
63808;BME280;49961;43.970;22.868;2023-01-31T05:34:26;101280.13;;;5.95;100.00
63808;BME280;49961;43.970;22.868;2023-01-31T05:35:29;101289.97;;;6.03;100.00
63808;BME280;49961;43.970;22.868;2023-01-31T05:36:30;101291.53;;;5.97;100.00
63808;BME280;49961;43.970;22.868;2023-01-31T05:37:30;101202.78;;;5.39;100.00
63808;BME280;49961;43.970;22.868;2023-01-31T05:38:30;101291.91;;;5.95;100.00
63808;BME280;49961;43.970;22.868;2023-01-31T05:39:31;101164.19;;;5.21;100.00
63808;BME280;49961;43.970;22.868;2023-01-31T05:40:32;101285.19;;;5.93;100.00
63808;BME280;49961;43.970;22.868;2023-01-31T05:41:32;101216.97;;;5.48;100.00
63808;BME280;49961;43.970;22.868;2023-01-31T05:42:32;101282.50;;;6.00;100.00
63808;BME280;49961;43.970;22.868;2023-01-31T05:43:33;101284.06;;;5.94;100.00
63808;BME280;49961;43.970;22.868;2023-01-31T05:44:33;101288.00;;;5.96;100.00
63808;BME280;49961;43.970;22.868;2023-01-31T05:45:34;101245.72;;;5.64;100.00
63808;BME280;49961;43.970;22.868;2023-01-31T05:46:34;101299.38;;;5.98;100.00
63808;BME280;49961;43.970;22.868;2023-01-31T05:47:35;101060.53;;;4.57;100.00
63808;BME280;49961;43.970;22.868;2023-01-31T05:48:36;101296.28;;;6.07;100.00
63808;BME280;49961;43.970;22.868;2023-01-31T05:49:36;101297.09;;;6.07;100.00
63808;BME280;49961;43.970;22.868;2023-01-31T05:50:37;101303.38;;;6.11;100.00
63808;BME280;49961;43.970;22.868;2023-01-31T05:51:38;101304.97;;;6.12;100.00
63808;BME280;49961;43.970;22.868;2023-01-31T05:52:39;101260.78;;;5.81;100.00
63808;BME280;49961;43.970;22.868;2023-01-31T05:53:39;101244.13;;;5.60;100.00